• Join FlightAware (Why Join?)
  • Login
  • US Flag 
04:54AM EDT


 

Airport Tracker/Info


-or-


 

Live Flight TrackerFlight Track Log ✈ TAM3766 ✈ 16-May-2013 ✈ SBGL / GIG - SBEG / MAO

Flight Track Log - Related Links

Times and Time Zones

All times are in EDT time to prevent confusion due to time zone crossing. See the TAM3766 flight status page for this flight to view local times or setup timezone preferences in your user account.

Time Position Orientation Groundspeed Altitude Reporting Facility
EDT Latitude Longitude Course Direction KTS MPH feet Rate Location/Type
11:45AM -22.7740 -43.1830 45° Northeast 217 250 1,200  Level FlightAware
11:45AM -22.7480 -43.1650 33° Northeast 247 284 1,900 2,400 Climbing FlightAware
11:45AM -22.7420 -43.1610 32° Northeast 247 284 2,200 2,640 Climbing FlightAware
11:45AM -22.7260 -43.1500 32° Northeast 251 289 3,000 3,000 Climbing FlightAware
11:46AM -22.7170 -43.1310 63° Northeast 264 304 3,700 2,220 Climbing FlightAware
11:46AM -22.7150 -43.0970 86° East 289 333 4,500 2,580 Climbing FlightAware
11:47AM -22.7160 -43.0540 91° East 286 329 6,100 3,180 Climbing FlightAware
11:47AM -22.7170 -43.0310 93° East 287 330 6,900 3,000 Climbing FlightAware
11:47AM -22.7170 -42.9960 90° East 291 335 8,100 2,760 Climbing FlightAware
11:48AM -22.7100 -42.9680 75° East 298 343 9,000 2,700 Climbing FlightAware
11:48AM -22.6950 -42.9510 46° Northeast 301 346 9,700 2,580 Climbing FlightAware
11:48AM -22.6760 -42.9450 16° North 307 353 10,300 2,220 Climbing FlightAware
11:49AM -22.6400 -42.9560 344° North 318 366 11,200 1,680 Climbing FlightAware
11:49AM -22.5820 -42.9900 332° Northwest 346 398 12,300 1,500 Climbing FlightAware
11:50AM -22.5270 -43.0210 332° Northwest 366 421 13,200 1,800 Climbing FlightAware
11:51AM -22.4630 -43.0610 330° Northwest 369 425 14,700 2,100 Climbing FlightAware
11:51AM -22.3950 -43.1040 330° Northwest 370 426 16,400 1,860 Climbing FlightAware
11:52AM -22.3340 -43.1420 330° Northwest 382 440 17,400 1,560 Climbing FlightAware
11:53AM -22.2720 -43.1800 330° Northwest 388 447 18,500 1,680 Climbing FlightAware
11:53AM -22.2030 -43.2230 330° Northwest 392 451 19,800 1,440 Climbing FlightAware
11:55AM -22.1090 -43.2810 330° Northwest 396 456 21,300 1,140 Climbing FlightAware
11:55AM -22.0260 -43.3320 330° Northwest 396 456 22,100 480 Climbing FlightAware
11:56AM -21.9590 -43.3740 330° Northwest 396 456 22,100  Level FlightAware
11:57AM -21.9050 -43.4080 330° Northwest 396 456 22,100  Level FlightAware
11:58AM -21.8510 -43.4410 330° Northwest 396 456 22,100  Level FlightAware
11:58AM -21.7970 -43.4750 330° Northwest 396 456 22,100  Level FlightAware
11:59AM -21.7430 -43.5080 330° Northwest 396 456 22,100 3,240 Level FlightAware
12:00PM -21.5580 -43.6200 331° Northwest 439 505 27,500 3,660 Climbing FlightAware
12:01PM -21.5030 -43.6530 331° Northwest 441 507 27,900 780 Climbing FlightAware
12:01PM -21.3880 -43.7240 330° Northwest 454 522 28,700 720 Climbing FlightAware
12:02PM -21.3320 -43.7580 331° Northwest 460 529 29,000 420 Climbing FlightAware
12:03PM -21.2310 -43.8200 330° Northwest 460 529 29,400 600 Climbing FlightAware
12:04PM -21.1350 -43.8770 331° Northwest 476 548 30,100 960 Climbing FlightAware
12:04PM -21.0570 -43.9250 330° Northwest 477 549 30,700 1,080 Climbing FlightAware
12:05PM -20.9710 -43.9770 331° Northwest 471 542 31,700 1,200 Climbing FlightAware
12:06PM -20.8950 -44.0230 331° Northwest 467 537 32,400 1,260 Climbing FlightAware
12:07PM -20.8110 -44.0740 330° Northwest 458 527 33,500 1,260 Climbing FlightAware
12:07PM -20.7520 -44.1090 331° Northwest 452 520 34,200 960 Climbing FlightAware
12:08PM -20.6790 -44.1530 331° Northwest 448 516 34,800 660 Climbing FlightAware
12:09PM -20.5970 -44.2030 330° Northwest 452 520 35,200 660 Climbing FlightAware
12:09PM -20.5150 -44.2520 331° Northwest 449 517 35,800 600 Climbing FlightAware
12:10PM -20.4550 -44.2900 329° Northwest 447 514 36,000 120 Climbing FlightAware
12:11PM -20.3640 -44.3490 329° Northwest 454 522 36,000  Level FlightAware
12:11PM -20.3180 -44.3790 329° Northwest 459 528 36,000  Level FlightAware
12:12PM -20.2450 -44.4250 329° Northwest 459 528 36,000 60 Level FlightAware
12:13PM -20.1690 -44.4740 329° Northwest 458 527 36,100 60 Climbing FlightAware
12:13PM -20.0910 -44.5250 328° Northwest 457 526 36,100 -120 Level FlightAware
12:14PM -20.0090 -44.5770 329° Northwest 455 524 36,000 -120 Descending FlightAware
12:15PM -19.9380 -44.6230 329° Northwest 456 525 36,000  Level FlightAware
12:15PM -19.8650 -44.6690 329° Northwest 458 527 36,000  Level FlightAware
12:16PM -19.7840 -44.7210 329° Northwest 460 529 36,000 60 Level FlightAware
12:17PM -19.7100 -44.7680 329° Northwest 458 527 36,100  Climbing FlightAware
12:17PM -19.6290 -44.8190 329° Northwest 458 527 36,000 -120 Descending FlightAware
12:18PM -19.5530 -44.8680 329° Northwest 457 526 36,000  Level FlightAware
12:19PM -19.4780 -44.9160 329° Northwest 457 526 36,000  Level FlightAware
12:20PM -19.3980 -44.9670 329° Northwest 458 527 36,000  Level FlightAware
12:20PM -19.3240 -45.0140 329° Northwest 458 527 36,000  Level FlightAware
12:21PM -19.2520 -45.0600 329° Northwest 458 527 36,000  Level FlightAware
12:22PM -19.1690 -45.1120 329° Northwest 459 528 36,000  Level FlightAware
12:22PM -19.0970 -45.1580 329° Northwest 460 529 36,000  Level FlightAware
12:23PM -19.0140 -45.2100 329° Northwest 461 531 36,000  Level FlightAware
12:24PM -18.9410 -45.2560 329° Northwest 462 532 36,000  Level FlightAware
12:24PM -18.8660 -45.3030 329° Northwest 463 533 36,000 60 Level FlightAware
12:25PM -18.7870 -45.3530 329° Northwest 465 535 36,100  Climbing FlightAware
12:26PM -18.7120 -45.4000 329° Northwest 466 536 36,000 -120 Descending FlightAware
12:27PM -18.6300 -45.4510 329° Northwest 473 544 36,000  Level FlightAware
12:27PM -18.5530 -45.5000 329° Northwest 476 548 36,000 60 Level FlightAware
12:28PM -18.4660 -45.5530 330° Northwest 477 549 36,100 60 Climbing FlightAware
12:29PM -18.3900 -45.6010 329° Northwest 477 549 36,100 -120 Level FlightAware
12:29PM -18.3150 -45.6490 329° Northwest 477 549 36,000 -120 Descending FlightAware
12:30PM -18.2300 -45.7030 329° Northwest 478 550 36,000  Level FlightAware
12:31PM -18.1550 -45.7490 330° Northwest 479 551 36,000  Level FlightAware
12:31PM -18.0760 -45.7990 329° Northwest 480 552 36,000  Level FlightAware
12:32PM -17.9950 -45.8500 329° Northwest 484 557 36,000  Level FlightAware
12:33PM -17.9180 -45.8970 330° Northwest 485 558 36,000 60 Level FlightAware
12:34PM -17.8270 -45.9540 329° Northwest 485 558 36,100  Climbing FlightAware
12:34PM -17.7500 -46.0010 330° Northwest 485 558 36,000 -120 Descending FlightAware
12:35PM -17.6760 -46.0460 330° Northwest 485 558 36,000  Level FlightAware
12:36PM -17.5860 -46.1020 329° Northwest 485 558 36,000  Level FlightAware
12:36PM -17.5070 -46.1500 330° Northwest 485 558 36,000  Level FlightAware
12:37PM -17.4210 -46.2030 330° Northwest 484 557 36,000  Level FlightAware
12:38PM -17.3510 -46.2460 330° Northwest 484 557 36,000 60 Level FlightAware
12:38PM -17.2640 -46.3000 329° Northwest 481 554 36,100 60 Climbing FlightAware
12:39PM -17.1800 -46.3520 329° Northwest 477 549 36,100 -120 Level FlightAware
12:40PM -17.0840 -46.4110 330° Northwest 476 548 36,000 -60 Descending FlightAware
12:41PM -16.9930 -46.4680 329° Northwest 475 547 36,000  Level FlightAware
12:41PM -16.9290 -46.5080 329° Northwest 475 547 36,000  Level FlightAware
12:42PM -16.8650 -46.5480 329° Northwest 475 547 36,000  Level FlightAware
12:43PM -16.8010 -46.5880 329° Northwest 475 547 36,000  Level FlightAware
12:43PM -16.7370 -46.6280 329° Northwest 475 547 36,000  Level FlightAware
12:44PM -16.6570 -46.6790 329° Northwest 475 547 36,000  Level FlightAware
12:45PM -16.5930 -46.7190 329° Northwest 475 547 36,000  Level FlightAware
12:46PM -16.5290 -46.7590 329° Northwest 475 547 36,000  Level FlightAware
12:46PM -16.4650 -46.7990 329° Northwest 475 547 36,000  Level FlightAware
12:47PM -16.4010 -46.8390 329° Northwest 475 547 36,000  Level FlightAware
12:48PM -16.3370 -46.8790 329° Northwest 475 547 36,000  Level FlightAware
12:48PM -16.1020 -47.0150 331° Northwest 483 556 36,000  Level FlightAware
12:49PM -15.9930 -47.0820 329° Northwest 482 555 36,000 60 Level FlightAware
12:50PM -15.9100 -47.1330 329° Northwest 481 554 36,100  Climbing FlightAware
12:51PM -15.8290 -47.1830 329° Northwest 481 554 36,000 -120 Descending FlightAware
12:51PM -15.7530 -47.2280 330° Northwest 482 555 36,000  Level FlightAware
12:52PM -15.6660 -47.2810 330° Northwest 485 558 36,000  Level FlightAware
12:53PM -15.5730 -47.3380 329° Northwest 485 558 36,000  Level FlightAware
12:54PM -15.4960 -47.3940 325° Northwest 483 556 36,000  Level FlightAware
12:55PM -15.4080 -47.4620 323° Northwest 483 556 36,000  Level FlightAware
12:55PM -15.3500 -47.5070 323° Northwest 484 557 36,000  Level FlightAware
12:56PM -15.2450 -47.5880 323° Northwest 484 557 36,000  Level FlightAware
12:57PM -15.1540 -47.6580 323° Northwest 485 558 36,100 60 Climbing FlightAware
12:58PM -15.0800 -47.7150 323° Northwest 483 556 36,100 -120 Level FlightAware
12:58PM -15.0000 -47.7760 324° Northwest 482 555 36,000 -120 Descending FlightAware
12:59PM -14.9350 -47.8260 323° Northwest 480 552 36,000  Level FlightAware
01:00PM -14.8130 -47.9200 323° Northwest 478 550 36,000  Level FlightAware
01:01PM -14.7530 -47.9670 323° Northwest 478 550 36,000  Level FlightAware
01:02PM -14.5910 -48.0910 323° Northwest 479 551 36,000  Level FlightAware
01:03PM -14.5160 -48.1650 316° Northwest 475 547 36,000 60 Level FlightAware
01:04PM -14.4370 -48.2480 314° West 475 547 36,100  Climbing FlightAware
01:05PM -14.3440 -48.3410 316° Northwest 471 542 36,100 -60 Level FlightAware
01:06PM -14.2380 -48.4490 315° West 468 539 36,000 -60 Descending FlightAware
01:07PM -14.1730 -48.5160 315° West 468 539 36,000  Level FlightAware
01:07PM -14.1090 -48.5810 315° West 469 540 36,000  Level FlightAware
01:08PM -14.0520 -48.6400 315° West 469 540 36,000  Level FlightAware
01:09PM -14.0000 -48.6940 315° West 469 540 36,000  Level FlightAware
01:09PM -13.9470 -48.7480 315° West 469 540 36,000 60 Level FlightAware
01:10PM -13.8520 -48.8440 316° Northwest 473 544 36,100 60 Climbing FlightAware
01:11PM -13.7820 -48.9150 315° West 473 544 36,100  Level FlightAware
01:12PM -13.7300 -48.9690 315° West 473 544 36,100 -120 Level FlightAware
01:12PM -13.6500 -49.0490 316° Northwest 475 547 36,000 -120 Descending FlightAware
01:13PM -13.5820 -49.1180 315° West 477 549 36,000  Level FlightAware
01:14PM -13.5230 -49.1790 315° West 477 549 36,000  Level FlightAware
01:14PM -13.4700 -49.2340 315° West 477 549 36,000  Level FlightAware
01:15PM -13.4170 -49.2880 315° West 477 549 36,000  Level FlightAware
01:16PM -13.3630 -49.3430 315° West 477 549 36,000  Level FlightAware
01:16PM -13.3100 -49.3970 315° West 477 549 36,000  Level FlightAware
01:17PM -13.2570 -49.4520 315° West 477 549 36,000  Level FlightAware
01:18PM -13.1310 -49.5760 316° Northwest 36,000  Level FlightAware
01:20PM -12.9809 -49.7391 313° West  Level Estimated
01:21PM -12.8974 -49.8296 313° West  Level Estimated
01:22PM -12.8140 -49.9200 313° West  Level Estimated
01:23PM -12.7305 -50.0104 313° West  Level Estimated
01:24PM -12.6469 -50.1007 313° West  Level Estimated
01:25PM -12.5633 -50.1909 313° West  Level Estimated
01:26PM -12.4797 -50.2812 314° West  Level Estimated
01:27PM -12.3961 -50.3713 314° West  Level Estimated
01:28PM -12.3125 -50.4614 314° West  Level Estimated
01:28PM -12.1350 -50.5790 314° West 484 557 36,000  Level FlightAware
01:29PM -12.0640 -50.6510 315° West 484 557 36,000  Level FlightAware
01:30PM -11.9880 -50.7260 316° Northwest 486 559 36,000  Level FlightAware
01:30PM -11.9250 -50.7890 316° Northwest 486 559 36,000  Level FlightAware
01:31PM -11.8700 -50.8440 316° Northwest 486 559 36,000  Level FlightAware
01:32PM -11.7990 -50.9150 316° Northwest 486 559 36,000  Level FlightAware
01:33PM -11.7340 -50.9810 315° West 486 559 36,000  Level FlightAware
01:33PM -11.6350 -51.0770 316° Northwest 487 560 36,000  Level FlightAware
01:34PM -11.5720 -51.1410 315° West 487 560 36,000  Level FlightAware
01:35PM -11.5180 -51.1960 315° West 487 560 36,000  Level FlightAware
01:36PM -11.4300 -51.2810 317° Northwest 489 563 36,000  Level FlightAware
01:36PM -11.3660 -51.3460 315° West 489 563 36,000  Level FlightAware
01:37PM -11.3950 -51.3170 136° Southeast 489 563 36,000  Level FlightAware
01:39PM -11.1340 -51.5730 316° Northwest 485 558 36,000  Level FlightAware
01:39PM -11.0740 -51.6340 315° West 485 558 36,000  Level FlightAware
01:40PM -11.0200 -51.6890 315° West 485 558 36,000  Level FlightAware
01:41PM -10.9660 -51.7440 315° West 485 558 36,000  Level FlightAware
01:41PM -10.9120 -51.7990 315° West 485 558 36,000  Level FlightAware
01:42PM -10.8450 -51.8670 315° West 485 558 36,000  Level FlightAware
01:43PM -10.7910 -51.9220 315° West 485 558 36,000  Level FlightAware
01:43PM -10.7370 -51.9770 315° West 485 558 36,000  Level FlightAware
01:44PM -10.6830 -52.0320 315° West 485 558 36,000  Level FlightAware
01:45PM -10.6160 -52.1010 315° West 485 558 36,000  Level FlightAware
01:46PM -10.5620 -52.1560 315° West 485 558 36,000  Level FlightAware
01:46PM -10.5080 -52.2100 315° West 485 558 36,000  Level FlightAware
01:47PM -10.4540 -52.2650 315° West 485 558 36,000  Level FlightAware
01:48PM -10.4000 -52.3200 315° West 485 558 36,000  Level FlightAware
01:48PM -10.3460 -52.3750 315° West 485 558 36,000 -420 Level FlightAware
01:51PM -10.1614 -52.5741 313° West  Level Estimated
01:52PM -10.0781 -52.6638 313° West  Level Estimated
01:53PM -9.9948 -52.7535 313° West  Level Estimated
01:54PM -9.9114 -52.8431 313° West  Level Estimated
01:55PM -9.8281 -52.9327 313° West  Level Estimated
01:56PM -9.7447 -53.0222 313° West  Level Estimated
01:57PM -9.6612 -53.1117 313° West  Level Estimated
01:58PM -9.5778 -53.2012 313° West  Level Estimated
01:59PM -9.4943 -53.2906 313° West  Level Estimated
02:00PM -9.4108 -53.3800 313° West  Level Estimated
02:01PM -9.3273 -53.4693 313° West  Level Estimated
02:02PM -9.2438 -53.5586 313° West  Level Estimated
02:03PM -9.1602 -53.6478 313° West  Level Estimated
02:04PM -9.0766 -53.7370 313° West  Level Estimated
02:05PM -8.9930 -53.8261 314° West  Level Estimated
02:06PM -8.9094 -53.9153 314° West  Level Estimated
02:07PM -8.8257 -54.0043 314° West  Level Estimated
02:08PM -8.7421 -54.0934 314° West  Level Estimated
02:09PM -8.6584 -54.1824 314° West  Level Estimated
02:10PM -8.5747 -54.2713 314° West  Level Estimated
02:11PM -8.4909 -54.3602 314° West  Level Estimated
02:12PM -8.4072 -54.4491 314° West  Level Estimated
02:13PM -8.3234 -54.5379 314° West  Level Estimated
02:14PM -8.2396 -54.6267 314° West  Level Estimated
02:15PM -8.1558 -54.7155 314° West  Level Estimated
02:16PM -8.0720 -54.8042 314° West  Level Estimated
02:17PM -7.9881 -54.8929 314° West  Level Estimated
02:18PM -7.9043 -54.9815 314° West  Level Estimated
02:19PM -7.8204 -55.0701 314° West  Level Estimated
02:20PM -7.7365 -55.1587 314° West  Level Estimated
02:21PM -7.6526 -55.2473 314° West  Level Estimated
02:22PM -7.5686 -55.3358 314° West  Level Estimated
02:23PM -7.4847 -55.4243 314° West  Level Estimated
02:24PM -7.4007 -55.5127 314° West  Level Estimated
02:25PM -7.3167 -55.6011 314° West  Level Estimated
02:26PM -7.2327 -55.6895 314° West  Level Estimated
02:27PM -7.1487 -55.7778 314° West  Level Estimated
02:28PM -7.0646 -55.8661 314° West  Level Estimated
02:29PM -6.9806 -55.9544 314° West  Level Estimated
02:30PM -6.8965 -56.0426 314° West  Level Estimated
02:31PM -6.8124 -56.1309 314° West  Level Estimated
02:32PM -6.7283 -56.2190 314° West  Level Estimated
02:33PM -6.6442 -56.3072 314° West  Level Estimated
02:34PM -6.5600 -56.3953 314° West  Level Estimated
02:35PM -6.4759 -56.4834 314° West  Level Estimated
02:36PM -6.3917 -56.5714 314° West  Level Estimated
02:37PM -6.3075 -56.6595 314° West  Level Estimated
02:38PM -6.2233 -56.7475 314° West  Level Estimated
02:39PM -6.1391 -56.8355 314° West  Level Estimated
02:40PM -6.0549 -56.9234 314° West  Level Estimated
02:41PM -5.9706 -57.0113 314° West  Level Estimated
02:42PM -5.8864 -57.0992 314° West  Level Estimated
02:43PM -5.8021 -57.1871 314° West  Level Estimated
02:44PM -5.7178 -57.2749 314° West  Level Estimated
02:45PM -5.6335 -57.3627 314° West  Level Estimated
02:46PM -5.5492 -57.4505 314° West  Level Estimated
02:47PM -5.4649 -57.5383 314° West  Level Estimated
02:48PM -5.3806 -57.6260 314° West  Level Estimated
02:49PM -5.2962 -57.7137 314° West  Level Estimated
02:50PM -5.2119 -57.8014 314° West  Level Estimated
02:51PM -5.1275 -57.8891 314° West  Level Estimated
02:52PM -5.0431 -57.9767 314° West  Level Estimated
02:53PM -4.9587 -58.0644 314° West  Level Estimated
02:54PM -4.8743 -58.1520 314° West  Level Estimated
02:55PM -4.7899 -58.2396 314° West  Level Estimated
02:56PM -4.7054 -58.3271 314° West  Level Estimated
02:57PM -4.6210 -58.4146 314° West  Level Estimated
02:58PM -4.5365 -58.5022 314° West  Level Estimated
02:59PM -4.4521 -58.5896 314° West  Level Estimated
03:00PM -4.3676 -58.6771 314° West  Level Estimated
03:01PM -4.2831 -58.7646 314° West  Level Estimated
03:02PM -4.1986 -58.8520 314° West  Level Estimated
03:03PM -4.1141 -58.9394 314° West  Level Estimated
03:04PM -4.0296 -59.0268 314° West  Level Estimated
03:05PM -3.9451 -59.1142 314° West  Level Estimated
03:06PM -3.8606 -59.2015 314° West  Level Estimated
03:07PM -3.7760 -59.2889 314° West  Level Estimated
03:07PM -3.3220 -59.7480 314° West 300 345 6,600  Level FlightAware
03:08PM -3.6915 -59.3762 314° West  Level Estimated
03:08PM -3.2940 -59.8050 296° West 295 339 6,000  Level FlightAware
03:09PM -3.2790 -59.8380 294° West 292 336 5,700 -780 Descending FlightAware
03:09PM -3.2600 -59.8740 298° West 290 334 5,300 -840 Descending FlightAware
03:09PM -3.2520 -59.8910 295° West 290 334 5,100 -780 Descending FlightAware
03:10PM -3.2370 -59.9220 296° West 287 330 4,800 -780 Descending FlightAware
03:10PM -3.2190 -59.9580 297° West 288 331 4,400 -840 Descending FlightAware
03:11PM -3.2100 -59.9750 298° West 288 331 4,200 -780 Descending FlightAware
03:11PM -3.1950 -60.0050 297° West 287 330 3,900 -660 Descending FlightAware
03:11PM -3.1770 -60.0410 297° West 286 329 3,600 -540 Descending FlightAware
03:12PM -3.1590 -60.0770 297° West 280 322 3,400 -480 Descending FlightAware
03:12PM -3.1450 -60.1040 297° West 278 320 3,200 -600 Descending FlightAware
03:13PM -3.1280 -60.1390 296° West 262 302 2,900 -600 Descending FlightAware
03:13PM -3.1110 -60.1620 307° West 248 285 2,700 -600 Descending FlightAware
03:14PM -3.0860 -60.1850 317° Northwest 230 265 2,400 -720 Descending FlightAware
03:14PM -3.0720 -60.1890 344° North 219 252 2,200 -420 Descending FlightAware
03:15PM -3.0470 -60.1760 27° Northeast 193 222 2,100 -120 Descending FlightAware
03:15PM -3.0380 -60.1580 63° Northeast 188 216 2,100 -480 Level FlightAware
03:15PM -3.0380 -60.1320 90° East 174 200 1,700 -840 Descending FlightAware
03:16PM -3.0380 -60.1210 90° East 162 186 1,500 -840 Descending FlightAware
03:16PM -3.0390 -60.1100 95° East 154 177 1,300 -780 Descending FlightAware
03:17PM -3.0390 -60.0820 90° East 143 165 800 -720 Descending FlightAware
03:17PM -3.0390 -60.0790 90° East 144 166 800 -300 Level FlightAware
03:17PM -3.0390 -60.0570 90° East 143 165 600 -360 Descending FlightAware